Time;durP1;ratioP1;P1;durP2;ratioP2;P2;SDS_P1;SDS_P2;PMS_P1;PMS_P2;Temp;Humidity;BMP_temperature;BMP_pressure;BME280_temperature;BME280_humidity;BME280_pressure;Samples;Min_cycle;Max_cycle;Signal;HPM_P1;HPM_P2
2023/06/14 00:01:58;;;;;;;4.97;3.35;;;18.90;99.90;;;;;;5052942;28;20200;-82
2023/06/14 00:04:26;;;;;;;6.78;3.30;;;18.80;99.90;;;;;;5052588;28;20205;-81
2023/06/14 00:06:52;;;;;;;8.70;3.25;;;18.80;99.90;;;;;;5053594;28;20198;-81
2023/06/14 00:09:20;;;;;;;7.30;3.35;;;18.80;99.90;;;;;;5053236;28;20222;-82
2023/06/14 00:11:47;;;;;;;7.30;3.08;;;18.80;99.90;;;;;;5053978;28;20569;-80
2023/06/14 00:14:14;;;;;;;6.30;3.45;;;18.70;99.90;;;;;;5053998;28;20209;-82
2023/06/14 00:16:43;;;;;;;5.85;3.50;;;18.70;99.90;;;;;;5053560;28;20217;-83
2023/06/14 00:19:10;;;;;;;7.60;3.10;;;18.70;99.90;;;;;;5052899;28;20224;-84
2023/06/14 00:21:37;;;;;;;3.97;3.08;;;18.60;99.90;;;;;;5046221;28;20504;-79
2023/06/14 00:24:06;;;;;;;4.95;3.25;;;18.60;99.90;;;;;;5033632;28;20203;-81
2023/06/14 00:26:32;;;;;;;6.50;2.92;;;18.50;99.90;;;;;;5035443;28;20191;-82
2023/06/14 00:28:59;;;;;;;4.35;2.80;;;18.50;99.90;;;;;;5053650;28;20598;-81
2023/06/14 00:31:27;;;;;;;9.18;3.65;;;18.50;99.90;;;;;;5053170;28;20579;-83
2023/06/14 00:33:55;;;;;;;3.85;3.40;;;18.40;99.90;;;;;;5053495;28;20284;-82
2023/06/14 00:36:22;;;;;;;9.45;3.45;;;18.40;99.90;;;;;;5052491;28;20205;-84
2023/06/14 00:38:49;;;;;;;6.45;3.33;;;18.40;99.90;;;;;;5053136;28;20205;-80
2023/06/14 00:41:16;;;;;;;6.13;3.60;;;18.30;99.90;;;;;;5053030;28;20663;-81
2023/06/14 00:43:43;;;;;;;6.53;2.92;;;18.30;99.90;;;;;;5052273;28;20297;-80
2023/06/14 00:46:10;;;;;;;5.18;3.30;;;18.30;99.90;;;;;;5052786;28;20202;-82
2023/06/14 00:48:38;;;;;;;5.22;3.42;;;18.20;99.90;;;;;;5052759;28;20580;-82
2023/06/14 00:51:07;;;;;;;6.13;3.35;;;18.20;99.90;;;;;;5052080;28;20205;-82
2023/06/14 00:53:35;;;;;;;5.15;3.17;;;18.20;99.90;;;;;;5052969;28;20209;-82
2023/06/14 00:56:02;;;;;;;7.75;3.40;;;18.20;99.90;;;;;;5053351;28;20197;-83
2023/06/14 00:58:30;;;;;;;6.25;3.50;;;18.20;99.90;;;;;;5052597;28;20329;-82
2023/06/14 01:00:57;;;;;;;6.53;3.13;;;18.10;99.90;;;;;;5053126;28;20575;-82
2023/06/14 01:03:25;;;;;;;5.50;3.45;;;18.10;99.90;;;;;;5054155;28;20201;-84
2023/06/14 01:06:01;;;;;;;8.43;3.58;;;18.10;99.90;;;;;;5053201;28;20202;-82
2023/06/14 01:08:42;;;;;;;5.93;2.92;;;18.00;99.90;;;;;;5053804;28;20221;-82
2023/06/14 01:11:17;;;;;;;6.45;3.40;;;18.00;99.90;;;;;;5052862;28;20517;-80
2023/06/14 01:13:47;;;;;;;4.55;3.53;;;18.00;99.90;;;;;;5053113;28;20196;-82
2023/06/14 01:16:15;;;;;;;9.00;3.70;;;18.00;99.90;;;;;;5052398;28;20724;-82
2023/06/14 01:18:47;;;;;;;8.63;3.13;;;18.00;99.90;;;;;;5052095;28;20202;-81
2023/06/14 01:21:22;;;;;;;7.18;3.28;;;17.90;99.90;;;;;;5052850;28;20202;-79
2023/06/14 01:23:52;;;;;;;6.03;3.53;;;17.90;99.90;;;;;;5052375;28;20288;-79
2023/06/14 01:26:20;;;;;;;7.50;3.15;;;17.90;99.90;;;;;;5052835;28;20870;-82
2023/06/14 01:28:48;;;;;;;5.03;3.13;;;17.90;99.90;;;;;;5052519;28;20240;-83
2023/06/14 01:31:21;;;;;;;3.75;3.20;;;17.80;99.90;;;;;;5053058;28;20650;-83
2023/06/14 01:33:49;;;;;;;5.80;3.08;;;17.80;99.90;;;;;;5052740;28;20264;-80
2023/06/14 01:36:17;;;;;;;8.55;3.42;;;17.80;99.90;;;;;;5052568;28;20255;-79
2023/06/14 01:38:46;;;;;;;4.03;3.13;;;17.80;99.90;;;;;;5052327;28;20206;-81
2023/06/14 01:41:15;;;;;;;5.10;3.38;;;17.80;99.90;;;;;;5052889;28;20206;-81
2023/06/14 01:43:43;;;;;;;8.23;3.08;;;17.70;99.90;;;;;;5053891;28;20198;-82
2023/06/14 01:46:11;;;;;;;5.03;2.72;;;17.80;99.90;;;;;;5053614;28;20208;-82
2023/06/14 01:48:38;;;;;;;5.70;2.97;;;17.80;99.90;;;;;;5056183;28;20205;-80
2023/06/14 01:51:05;;;;;;;7.95;3.40;;;17.70;99.90;;;;;;5057331;28;20202;-79
2023/06/14 01:53:32;;;;;;;3.90;2.45;;;17.80;99.90;;;;;;5057473;28;20240;-81
2023/06/14 01:55:59;;;;;;;5.68;2.63;;;17.80;99.90;;;;;;5057224;28;20606;-82
2023/06/14 01:58:28;;;;;;;4.05;2.80;;;17.80;99.90;;;;;;5059259;28;20209;-81
2023/06/14 02:00:56;;;;;;;7.57;2.80;;;17.70;99.90;;;;;;5054496;28;20607;-81
2023/06/14 02:03:24;;;;;;;6.20;2.50;;;17.70;99.90;;;;;;5039109;28;20191;-81
2023/06/14 02:05:50;;;;;;;5.07;2.70;;;17.70;99.90;;;;;;5043980;28;20199;-82
2023/06/14 02:08:17;;;;;;;5.75;3.03;;;17.70;99.90;;;;;;5048240;28;20191;-81
2023/06/14 02:10:44;;;;;;;4.05;2.85;;;17.70;99.90;;;;;;5039645;28;20282;-83
2023/06/14 02:13:11;;;;;;;5.93;2.70;;;17.70;99.90;;;;;;5037786;28;20313;-83
2023/06/14 02:15:40;;;;;;;7.15;3.40;;;17.70;99.90;;;;;;5038929;28;20623;-82
2023/06/14 02:18:08;;;;;;;4.85;2.60;;;17.70;99.90;;;;;;5057662;28;20202;-83
2023/06/14 02:20:35;;;;;;;7.65;2.63;;;17.70;99.90;;;;;;5057386;28;20280;-83
2023/06/14 02:23:02;;;;;;;3.42;2.65;;;17.70;99.90;;;;;;5055859;28;20212;-81
2023/06/14 02:25:29;;;;;;;8.52;3.03;;;17.70;99.90;;;;;;5056411;28;20199;-82
2023/06/14 02:27:56;;;;;;;8.95;3.00;;;17.70;99.90;;;;;;5056738;28;20728;-82
2023/06/14 02:30:23;;;;;;;6.00;2.78;;;17.60;99.90;;;;;;5055519;28;20669;-83
2023/06/14 02:32:53;;;;;;;3.75;2.65;;;17.70;99.90;;;;;;5056587;28;20623;-82
2023/06/14 02:35:22;;;;;;;6.00;3.40;;;17.60;99.90;;;;;;5056226;28;20252;-81
2023/06/14 02:37:49;;;;;;;6.03;2.75;;;17.60;99.90;;;;;;5055566;28;20220;-82
2023/06/14 02:40:15;;;;;;;6.15;3.00;;;17.60;99.90;;;;;;5055919;28;20281;-81
2023/06/14 02:42:42;;;;;;;6.65;2.78;;;17.50;99.90;;;;;;5056532;28;20551;-82
2023/06/14 02:45:10;;;;;;;4.07;3.00;;;17.50;99.90;;;;;;5055510;28;20201;-81
2023/06/14 02:47:37;;;;;;;6.28;3.15;;;17.50;99.90;;;;;;5055383;28;20193;-84
2023/06/14 02:50:07;;;;;;;5.05;3.05;;;17.40;99.90;;;;;;5055405;28;20277;-81
2023/06/14 02:52:34;;;;;;;5.47;2.80;;;17.40;99.90;;;;;;5056632;28;20214;-80
2023/06/14 02:55:01;;;;;;;5.70;2.67;;;17.40;99.90;;;;;;5056289;28;20240;-83
2023/06/14 02:57:28;;;;;;;4.88;3.13;;;17.40;99.90;;;;;;5055582;28;20206;-81
2023/06/14 02:59:55;;;;;;;3.42;2.60;;;17.40;99.90;;;;;;5053982;28;20197;-82
2023/06/14 03:02:22;;;;;;;5.63;2.95;;;17.30;99.90;;;;;;5055342;28;20561;-82
2023/06/14 03:04:49;;;;;;;8.20;3.03;;;17.30;99.90;;;;;;5054230;28;20492;-83
2023/06/14 03:07:19;;;;;;;5.38;2.80;;;17.20;99.90;;;;;;5054851;28;20296;-83
2023/06/14 03:09:46;;;;;;;6.28;2.78;;;17.20;99.90;;;;;;5054870;28;20214;-81
2023/06/14 03:12:14;;;;;;;4.15;3.33;;;17.20;99.90;;;;;;5054276;28;20221;-81
2023/06/14 03:14:41;;;;;;;3.75;2.80;;;17.30;99.90;;;;;;5055599;28;20602;-80
2023/06/14 03:17:09;;;;;;;7.45;2.90;;;17.20;99.90;;;;;;5054973;28;20260;-82
2023/06/14 03:19:36;;;;;;;4.20;2.90;;;17.20;99.90;;;;;;5054443;28;20244;-79
2023/06/14 03:22:03;;;;;;;3.70;2.70;;;17.10;99.90;;;;;;5054045;28;20241;-80
2023/06/14 03:24:36;;;;;;;6.95;2.70;;;17.10;99.90;;;;;;5054611;28;20565;-80
2023/06/14 03:27:03;;;;;;;5.30;2.70;;;17.10;99.90;;;;;;5053872;28;20281;-80
2023/06/14 03:29:31;;;;;;;9.52;2.85;;;17.10;99.90;;;;;;5053750;28;20245;-81
2023/06/14 03:31:59;;;;;;;7.32;3.00;;;17.00;99.90;;;;;;5054236;28;20262;-80
2023/06/14 03:34:26;;;;;;;8.02;2.83;;;17.00;99.90;;;;;;5053762;28;20288;-79
2023/06/14 03:36:53;;;;;;;4.72;2.85;;;17.00;99.90;;;;;;5054572;28;20205;-82
2023/06/14 03:39:20;;;;;;;4.35;2.50;;;16.90;99.90;;;;;;5052612;28;20202;-80
2023/06/14 03:41:49;;;;;;;6.53;2.60;;;16.90;99.90;;;;;;5053494;28;20802;-81
2023/06/14 03:44:18;;;;;;;6.35;2.80;;;16.90;99.90;;;;;;5053712;28;20243;-77
2023/06/14 03:46:45;;;;;;;6.70;2.70;;;16.90;99.90;;;;;;5053395;28;20209;-78
2023/06/14 03:49:12;;;;;;;5.68;2.67;;;17.00;99.90;;;;;;5054089;28;20198;-81
2023/06/14 03:51:40;;;;;;;3.22;2.40;;;17.00;99.90;;;;;;5053459;28;20206;-79
2023/06/14 03:54:07;;;;;;;6.10;2.70;;;16.90;99.90;;;;;;5052608;28;20666;-81
2023/06/14 03:56:35;;;;;;;6.15;2.90;;;16.90;99.90;;;;;;5053746;28;20202;-81
2023/06/14 03:59:04;;;;;;;5.93;3.00;;;16.80;99.90;;;;;;5052966;28;20213;-79
2023/06/14 04:01:31;;;;;;;5.75;2.58;;;16.80;99.90;;;;;;5054118;28;20228;-80
2023/06/14 04:03:58;;;;;;;4.68;2.70;;;16.80;99.90;;;;;;5053528;28;20221;-80
2023/06/14 04:06:32;;;;;;;4.53;2.45;;;16.80;99.90;;;;;;5053264;28;20197;-81
2023/06/14 04:09:03;;;;;;;3.00;2.70;;;16.80;99.90;;;;;;5051054;28;20649;-81
2023/06/14 04:11:31;;;;;;;4.35;2.85;;;16.80;99.90;;;;;;5053066;28;20198;-80
2023/06/14 04:13:57;;;;;;;6.47;2.88;;;16.90;99.90;;;;;;5052922;28;20218;-80
2023/06/14 04:16:26;;;;;;;3.22;2.33;;;16.90;99.90;;;;;;5052691;28;20572;-79
2023/06/14 04:18:54;;;;;;;5.25;2.58;;;16.90;99.90;;;;;;5053736;28;20973;-79
2023/06/14 04:21:23;;;;;;;6.60;2.97;;;17.00;99.90;;;;;;5035633;28;20206;-81
2023/06/14 04:23:52;;;;;;;5.20;3.20;;;17.00;99.90;;;;;;5051311;28;20198;-81
2023/06/14 04:26:19;;;;;;;5.40;3.13;;;17.10;99.90;;;;;;5052423;28;20202;-81
2023/06/14 04:28:46;;;;;;;7.15;2.97;;;17.10;99.90;;;;;;5052546;28;20252;-81
2023/06/14 04:31:14;;;;;;;4.07;2.45;;;17.20;99.90;;;;;;5052496;28;20241;-80
2023/06/14 04:33:45;;;;;;;5.25;2.58;;;17.20;99.90;;;;;;5052576;28;20229;-79
2023/06/14 04:36:12;;;;;;;4.18;2.40;;;17.20;99.90;;;;;;5052277;28;20461;-80
2023/06/14 04:38:39;;;;;;;3.78;2.25;;;17.20;99.90;;;;;;5052578;28;20280;-80
2023/06/14 04:41:06;;;;;;;6.05;3.08;;;17.30;99.90;;;;;;5032694;28;20214;-79
2023/06/14 04:43:37;;;;;;;4.15;2.92;;;17.30;99.90;;;;;;5032589;28;20199;-80
2023/06/14 04:46:05;;;;;;;2.63;2.30;;;17.30;99.90;;;;;;5048182;28;20209;-82
2023/06/14 04:48:32;;;;;;;6.68;2.78;;;17.30;99.90;;;;;;5053726;28;20277;-83
2023/06/14 04:51:00;;;;;;;4.95;2.83;;;17.40;99.90;;;;;;5052661;28;20205;-81
2023/06/14 04:53:28;;;;;;;7.22;3.15;;;17.40;99.90;;;;;;5052471;28;20232;-83
2023/06/14 04:55:55;;;;;;;5.78;2.50;;;17.50;99.90;;;;;;5053441;28;20201;-84
2023/06/14 04:58:22;;;;;;;5.63;3.20;;;17.60;99.90;;;;;;5052457;28;20714;-81
2023/06/14 05:00:49;;;;;;;4.72;2.83;;;17.70;99.90;;;;;;5052207;28;20606;-80
2023/06/14 05:03:18;;;;;;;4.97;2.70;;;17.90;99.90;;;;;;5053136;28;20489;-79
2023/06/14 05:05:45;;;;;;;5.43;2.63;;;18.10;99.90;;;;;;5051790;28;20202;-83
2023/06/14 05:08:13;;;;;;;6.13;2.60;;;18.40;99.90;;;;;;5052999;28;20248;-80
2023/06/14 05:10:40;;;;;;;2.58;2.38;;;18.80;99.90;;;;;;5052686;28;20290;-82
2023/06/14 05:13:07;;;;;;;8.48;3.30;;;19.00;99.90;;;;;;5052600;28;20328;-82
2023/06/14 05:15:34;;;;;;;5.20;2.78;;;19.40;99.90;;;;;;5052531;28;20240;-81
2023/06/14 05:18:02;;;;;;;4.88;3.08;;;19.70;99.90;;;;;;5052234;28;20289;-81
2023/06/14 05:20:30;;;;;;;22.67;4.65;;;19.90;99.90;;;;;;5052550;28;20228;-81
2023/06/14 05:22:56;;;;;;;6.97;3.20;;;20.10;99.90;;;;;;5051806;28;20646;-83
2023/06/14 05:25:25;;;;;;;5.80;3.00;;;20.40;99.90;;;;;;5051584;28;20251;-81
2023/06/14 05:27:52;;;;;;;3.42;2.67;;;20.70;99.90;;;;;;5052539;28;20509;-81
2023/06/14 05:30:19;;;;;;;4.93;2.72;;;20.80;99.90;;;;;;5052911;28;20204;-81
2023/06/14 05:32:46;;;;;;;6.13;2.40;;;21.00;99.90;;;;;;5051430;28;20516;-82
2023/06/14 05:35:13;;;;;;;4.18;2.33;;;21.30;99.90;;;;;;5052148;28;20617;-79
2023/06/14 05:37:40;;;;;;;4.68;2.83;;;21.50;99.90;;;;;;5052865;28;20212;-83
2023/06/14 05:40:09;;;;;;;8.38;2.90;;;21.70;99.90;;;;;;5053032;28;20288;-80
2023/06/14 05:42:37;;;;;;;4.55;2.55;;;21.80;99.90;;;;;;5051912;28;20237;-84
2023/06/14 05:45:05;;;;;;;6.65;2.40;;;21.90;99.90;;;;;;5053763;28;20226;-82
2023/06/14 05:47:32;;;;;;;2.95;2.38;;;22.20;99.90;;;;;;5051574;28;20553;-81
2023/06/14 05:49:59;;;;;;;5.60;2.20;;;22.50;99.90;;;;;;5052378;28;20204;-81
2023/06/14 05:52:26;;;;;;;5.30;2.80;;;22.60;99.90;;;;;;5052002;28;20190;-80
2023/06/14 05:54:53;;;;;;;4.28;2.17;;;22.50;99.90;;;;;;5051567;28;20443;-81
2023/06/14 05:57:20;;;;;;;6.03;2.40;;;22.60;99.90;;;;;;5051971;28;20233;-82
2023/06/14 05:59:50;;;;;;;3.03;2.47;;;22.80;99.90;;;;;;5052519;28;20198;-80
2023/06/14 06:02:17;;;;;;;5.07;2.47;;;23.00;99.90;;;;;;5051052;28;20202;-82
2023/06/14 06:04:44;;;;;;;2.70;2.30;;;22.90;99.90;;;;;;5051697;28;20240;-81
2023/06/14 06:07:11;;;;;;;4.75;2.28;;;22.90;99.90;;;;;;5052023;28;20237;-83
2023/06/14 06:09:38;;;;;;;6.57;2.65;;;22.90;99.90;;;;;;5052234;28;20300;-81
2023/06/14 06:12:07;;;;;;;5.25;2.65;;;22.90;99.90;;;;;;5052777;28;20198;-85
2023/06/14 06:14:34;;;;;;;2.70;2.38;;;23.10;99.90;;;;;;5051785;28;20222;-82
2023/06/14 06:17:03;;;;;;;4.53;2.50;;;23.10;99.90;;;;;;5052240;28;20670;-81
2023/06/14 06:19:30;;;;;;;3.58;2.33;;;23.40;99.90;;;;;;5051993;28;20198;-79
2023/06/14 06:21:56;;;;;;;5.55;2.65;;;23.40;99.90;;;;;;5051906;28;20804;-83
2023/06/14 06:24:23;;;;;;;3.08;2.50;;;23.30;99.90;;;;;;5052174;28;20293;-81
2023/06/14 06:26:50;;;;;;;3.78;2.40;;;23.50;99.90;;;;;;5052803;28;20255;-83
2023/06/14 06:29:17;;;;;;;4.85;2.50;;;23.90;99.90;;;;;;5051944;28;20206;-82
2023/06/14 06:31:45;;;;;;;3.85;2.22;;;24.20;99.90;;;;;;5043709;28;20690;-82
2023/06/14 06:34:14;;;;;;;5.30;2.30;;;24.60;99.90;;;;;;5034264;28;20226;-78
2023/06/14 06:36:42;;;;;;;9.10;3.03;;;25.00;99.90;;;;;;5036762;28;20198;-81
2023/06/14 06:39:10;;;;;;;3.70;2.55;;;25.00;99.90;;;;;;5054424;28;20202;-83
2023/06/14 06:41:37;;;;;;;4.10;2.47;;;25.30;99.90;;;;;;5055173;28;20206;-82
2023/06/14 06:44:05;;;;;;;2.55;2.22;;;25.60;99.90;;;;;;5054233;28;20202;-85
2023/06/14 06:46:31;;;;;;;3.47;2.20;;;25.70;99.90;;;;;;5055043;28;20193;-83
2023/06/14 06:48:58;;;;;;;3.70;2.67;;;26.00;99.90;;;;;;5055099;28;20233;-81
2023/06/14 06:51:27;;;;;;;8.27;2.38;;;26.10;99.90;;;;;;5054387;28;20285;-82
2023/06/14 06:53:54;;;;;;;4.20;2.20;;;26.50;99.90;;;;;;5054378;28;20240;-81
2023/06/14 06:56:22;;;;;;;3.53;2.30;;;26.50;99.90;;;;;;5054790;28;20202;-83
2023/06/14 06:58:49;;;;;;;2.67;2.20;;;26.90;99.90;;;;;;5054742;28;20198;-80
2023/06/14 07:01:16;;;;;;;4.80;2.33;;;27.10;99.90;;;;;;5054049;28;20209;-81
2023/06/14 07:03:44;;;;;;;4.85;2.50;;;27.00;99.90;;;;;;5051837;28;20202;-82
2023/06/14 07:06:11;;;;;;;4.07;2.75;;;27.00;99.90;;;;;;5058416;28;20185;-84
2023/06/14 07:08:39;;;;;;;3.40;2.65;;;27.20;99.90;;;;;;5074105;28;20220;-81
2023/06/14 07:11:07;;;;;;;4.82;2.45;;;27.00;99.90;;;;;;5064755;28;20260;-82
2023/06/14 07:13:34;;;;;;;3.22;2.90;;;27.10;99.90;;;;;;5053122;28;20222;-82
2023/06/14 07:16:01;;;;;;;6.43;2.83;;;27.00;99.90;;;;;;5053664;28;20494;-83
2023/06/14 07:18:28;;;;;;;6.80;2.63;;;26.70;99.90;;;;;;5052657;28;20613;-81
2023/06/14 07:20:55;;;;;;;6.68;2.67;;;26.70;99.90;;;;;;5053495;28;20205;-82
2023/06/14 07:23:22;;;;;;;3.72;2.80;;;26.70;99.90;;;;;;5053615;28;20307;-81
2023/06/14 07:25:51;;;;;;;3.38;2.60;;;26.70;99.90;;;;;;5053080;28;20232;-83
2023/06/14 07:28:18;;;;;;;5.53;2.80;;;27.00;99.90;;;;;;5033986;28;20202;-82
2023/06/14 07:30:45;;;;;;;4.50;2.60;;;27.10;99.90;;;;;;5034385;28;20579;-84
2023/06/14 07:33:13;;;;;;;3.13;2.80;;;27.40;99.90;;;;;;5034221;28;20277;-82
2023/06/14 07:35:40;;;;;;;3.25;2.30;;;27.00;99.90;;;;;;5044439;28;20268;-80
2023/06/14 07:38:07;;;;;;;4.93;2.22;;;26.70;99.90;;;;;;5054102;28;20230;-84
2023/06/14 07:40:33;;;;;;;7.40;2.70;;;26.70;99.90;;;;;;5053162;28;20202;-85
2023/06/14 07:43:02;;;;;;;5.75;2.63;;;26.90;99.90;;;;;;5053743;28;20195;-82
2023/06/14 07:45:29;;;;;;;5.18;2.80;;;26.90;99.90;;;;;;5040870;28;20520;-79
2023/06/14 07:47:56;;;;;;;4.90;2.50;;;26.70;99.90;;;;;;5043565;28;20591;-82
2023/06/14 07:50:23;;;;;;;3.50;2.75;;;26.80;99.90;;;;;;5047566;28;20212;-80
2023/06/14 07:52:50;;;;;;;3.20;2.40;;;27.40;99.90;;;;;;5042609;28;20194;-87
2023/06/14 07:55:17;;;;;;;2.90;2.60;;;27.70;99.90;;;;;;5046510;28;20256;-79
2023/06/14 07:57:44;;;;;;;4.25;2.30;;;28.00;99.90;;;;;;5045487;28;20210;-80
2023/06/14 08:00:15;;;;;;;6.30;2.42;;;28.20;99.90;;;;;;5042012;28;20198;-83
2023/06/14 08:02:42;;;;;;;4.28;2.38;;;28.60;99.90;;;;;;5043470;28;20744;-82
2023/06/14 08:05:11;;;;;;;5.28;2.53;;;28.90;99.90;;;;;;5042102;28;20197;-84
2023/06/14 08:07:38;;;;;;;4.20;2.45;;;29.30;99.90;;;;;;5044387;28;20195;-82
2023/06/14 08:10:06;;;;;;;5.38;2.40;;;29.60;99.90;;;;;;5049859;28;20250;-79
2023/06/14 08:12:33;;;;;;;6.00;2.75;;;29.70;99.90;;;;;;5051905;28;20213;-79
2023/06/14 08:15:00;;;;;;;4.43;3.00;;;29.80;99.90;;;;;;5052244;28;20298;-80
2023/06/14 08:17:29;;;;;;;4.70;2.70;;;29.30;99.90;;;;;;5052735;28;20307;-80
2023/06/14 08:19:57;;;;;;;3.47;2.47;;;28.90;99.90;;;;;;5049271;28;20199;-81
2023/06/14 08:22:24;;;;;;;5.88;2.95;;;28.80;99.90;;;;;;5051970;28;20200;-79
2023/06/14 08:24:54;;;;;;;6.00;2.40;;;29.00;99.90;;;;;;5052924;28;20198;-78
2023/06/14 08:27:21;;;;;;;5.40;3.05;;;28.70;99.90;;;;;;5032328;28;20780;-78
2023/06/14 08:29:47;;;;;;;2.67;2.22;;;28.50;99.90;;;;;;5033636;28;20199;-81
2023/06/14 08:32:14;;;;;;;4.13;3.03;;;28.80;99.90;;;;;;5052862;28;20823;-80
2023/06/14 08:34:43;;;;;;;6.50;2.75;;;29.00;99.90;;;;;;5052861;28;20228;-80
2023/06/14 08:37:10;;;;;;;5.35;2.55;;;29.00;99.90;;;;;;5052338;28;20214;-80
2023/06/14 08:39:38;;;;;;;5.25;2.92;;;29.50;99.90;;;;;;5052742;28;20208;-86
2023/06/14 08:42:08;;;;;;;3.22;2.45;;;29.80;99.90;;;;;;5052693;28;20861;-81
2023/06/14 08:44:35;;;;;;;3.30;2.45;;;30.20;99.90;;;;;;5053434;28;20190;-85
2023/06/14 08:47:04;;;;;;;4.63;2.30;;;30.60;99.90;;;;;;5052739;28;20208;-79
2023/06/14 08:49:32;;;;;;;9.05;3.35;;;30.70;99.90;;;;;;5052214;28;20237;-80
2023/06/14 08:52:01;;;;;;;7.53;2.83;;;30.80;99.90;;;;;;5052676;28;20208;-80
2023/06/14 08:54:30;;;;;;;2.40;2.20;;;30.50;99.90;;;;;;5053725;28;20229;-82
2023/06/14 08:56:57;;;;;;;3.60;2.50;;;30.70;99.90;;;;;;5050511;28;20198;-85
2023/06/14 08:59:26;;;;;;;3.28;2.40;;;30.80;99.90;;;;;;5053162;28;20202;-79
2023/06/14 09:01:54;;;;;;;3.85;2.50;;;30.70;99.90;;;;;;5051976;28;20194;-83
2023/06/14 09:04:21;;;;;;;4.75;2.38;;;30.60;99.90;;;;;;5033752;28;20626;-82
2023/06/14 09:06:52;;;;;;;4.00;2.50;;;30.80;99.90;;;;;;5041568;28;20217;-81
2023/06/14 09:09:21;;;;;;;4.60;2.22;;;30.80;99.90;;;;;;5039731;28;20313;-81
2023/06/14 09:11:48;;;;;;;2.13;1.80;;;31.10;99.90;;;;;;5038140;28;20207;-80
2023/06/14 09:14:15;;;;;;;5.60;2.17;;;31.30;99.90;;;;;;5031981;28;20218;-80
2023/06/14 09:16:41;;;;;;;3.63;2.22;;;31.20;99.90;;;;;;5032046;28;20641;-80
2023/06/14 09:19:09;;;;;;;3.13;2.42;;;31.00;99.90;;;;;;5031672;28;20285;-82
2023/06/14 09:21:37;;;;;;;3.03;2.20;;;30.60;99.90;;;;;;5052001;28;20228;-79
2023/06/14 09:24:05;;;;;;;6.45;2.13;;;30.70;99.90;;;;;;5051813;28;20243;-84
2023/06/14 09:26:33;;;;;;;4.03;2.20;;;30.90;99.90;;;;;;5052497;28;20201;-81
2023/06/14 09:29:00;;;;;;;2.83;1.90;;;30.90;99.90;;;;;;5051610;28;20289;-77
2023/06/14 09:31:31;;;;;;;2.63;2.08;;;30.90;99.90;;;;;;5051015;28;20238;-82
2023/06/14 09:33:58;;;;;;;4.88;2.15;;;30.90;99.90;;;;;;5051405;28;20811;-83
2023/06/14 09:36:27;;;;;;;4.55;2.00;;;30.70;99.90;;;;;;5051898;28;20208;-87
2023/06/14 09:38:54;;;;;;;5.53;2.10;;;30.60;99.90;;;;;;5051815;28;20751;-84
2023/06/14 09:41:21;;;;;;;7.00;1.85;;;30.60;99.90;;;;;;5052068;28;20197;-83
2023/06/14 09:43:50;;;;;;;6.45;1.98;;;30.80;99.90;;;;;;5051291;28;20201;-86
2023/06/14 09:46:18;;;;;;;4.75;2.17;;;31.00;99.90;;;;;;5051206;28;20232;-86
2023/06/14 09:48:44;;;;;;;4.80;1.60;;;31.20;99.90;;;;;;5038174;28;20871;-84
2023/06/14 09:51:17;;;;;;;6.35;2.28;;;30.80;99.90;;;;;;5032779;28;20198;-81
2023/06/14 09:53:47;;;;;;;3.38;1.90;;;30.40;99.90;;;;;;5032247;28;20214;-83
2023/06/14 09:56:14;;;;;;;3.97;1.75;;;30.40;99.90;;;;;;5048217;28;20855;-81
2023/06/14 09:58:42;;;;;;;2.55;1.70;;;30.30;99.90;;;;;;5065676;28;20207;-81
2023/06/14 10:01:13;;;;;;;3.97;1.73;;;30.40;99.90;;;;;;5072142;28;20232;-82
2023/06/14 10:03:41;;;;;;;1.80;1.70;;;30.60;99.90;;;;;;5065492;28;20297;-83
2023/06/14 10:06:10;;;;;;;3.53;1.50;;;31.00;99.90;;;;;;5051803;28;20205;-82
2023/06/14 10:08:38;;;;;;;5.95;2.08;;;31.10;99.90;;;;;;5053564;28;20513;-82
2023/06/14 10:11:05;;;;;;;2.30;1.73;;;31.50;99.90;;;;;;5056616;28;20277;-84
2023/06/14 10:13:34;;;;;;;2.72;1.65;;;31.70;99.90;;;;;;5056923;28;20194;-88
2023/06/14 10:16:08;;;;;;;2.25;1.67;;;32.00;99.90;;;;;;5056031;28;20221;-85
2023/06/14 10:18:44;;;;;;;5.53;1.80;;;32.00;99.90;;;;;;5057190;28;20284;-87
2023/06/14 10:21:19;;;;;;;3.22;1.75;;;31.20;99.90;;;;;;5040405;28;20213;-89
2023/06/14 10:23:48;;;;;;;4.70;1.70;;;30.70;99.90;;;;;;5036911;28;20217;-88
2023/06/14 10:26:24;;;;;;;4.97;1.83;;;30.60;99.90;;;;;;5037415;28;20205;-87
2023/06/14 10:28:59;;;;;;;1.67;1.50;;;30.60;99.90;;;;;;5037038;28;20285;-87
2023/06/14 10:31:43;;;;;;;4.28;1.73;;;30.80;99.90;;;;;;5037115;28;20245;-88
2023/06/14 10:34:11;;;;;;;4.28;1.70;;;30.90;99.90;;;;;;5037144;28;20206;-88
2023/06/14 10:36:41;;;;;;;3.05;1.48;;;30.70;99.90;;;;;;5037032;28;20293;-86
2023/06/14 10:39:12;;;;;;;3.13;1.83;;;31.00;99.90;;;;;;5055217;28;20216;-88
2023/06/14 10:41:39;;;;;;;3.60;1.83;;;30.80;99.90;;;;;;5045480;28;20213;-84
2023/06/14 10:44:32;;;;;;;2.90;1.88;;;30.40;99.90;;;;;;5049407;28;20214;-88
2023/06/14 10:47:00;;;;;;;4.47;1.80;;;30.10;99.90;;;;;;5036705;28;20206;-87
2023/06/14 10:49:41;;;;;;;3.92;1.88;;;29.80;99.90;;;;;;5036229;28;20235;-86
2023/06/14 10:52:16;;;;;;;2.95;1.95;;;29.60;99.90;;;;;;5036583;28;20439;-80
2023/06/14 10:55:03;;;;;;;3.83;1.90;;;29.40;99.90;;;;;;5036340;28;20214;-86
2023/06/14 10:57:32;;;;;;;5.32;1.80;;;29.40;99.90;;;;;;5046784;28;20232;-82
2023/06/14 10:59:59;;;;;;;3.85;2.08;;;29.20;99.90;;;;;;5067892;28;20616;-82
2023/06/14 11:02:58;;;;;;;4.55;1.58;;;29.10;99.90;;;;;;5054332;28;20232;-84
2023/06/14 11:05:27;;;;;;;5.22;1.92;;;29.00;99.90;;;;;;5055428;28;20210;-81
2023/06/14 11:08:16;;;;;;;3.10;1.60;;;29.10;99.90;;;;;;5055325;28;20201;-84
2023/06/14 11:10:45;;;;;;;7.55;1.90;;;28.90;99.90;;;;;;5054335;28;20209;-83
2023/06/14 11:13:12;;;;;;;5.38;1.92;;;28.70;99.90;;;;;;5054670;28;20213;-81
2023/06/14 11:15:44;;;;;;;6.55;2.03;;;28.40;99.90;;;;;;5054588;28;20596;-82
2023/06/14 11:18:11;;;;;;;1.90;1.58;;;28.60;99.90;;;;;;5053850;28;20503;-84
2023/06/14 11:20:41;;;;;;;3.67;1.65;;;28.80;99.90;;;;;;5054692;28;20198;-84
2023/06/14 11:23:08;;;;;;;2.10;1.75;;;29.10;99.90;;;;;;5055320;28;20198;-85
2023/06/14 11:25:35;;;;;;;2.33;1.80;;;29.40;99.90;;;;;;5050946;28;20562;-81
2023/06/14 11:28:01;;;;;;;2.00;1.67;;;29.30;99.90;;;;;;5051796;28;20293;-84
2023/06/14 11:30:29;;;;;;;1.98;1.70;;;29.20;99.90;;;;;;5053427;28;20284;-85
2023/06/14 11:32:57;;;;;;;2.05;1.70;;;28.90;99.90;;;;;;5037049;28;20244;-83
2023/06/14 11:35:24;;;;;;;4.18;1.80;;;29.20;99.90;;;;;;5060853;28;20228;-82
2023/06/14 11:37:56;;;;;;;3.55;1.63;;;29.20;99.90;;;;;;5057975;28;20237;-83
2023/06/14 11:40:25;;;;;;;2.28;1.60;;;29.20;99.90;;;;;;5052513;28;20498;-83
2023/06/14 11:43:00;;;;;;;4.88;1.85;;;29.20;99.90;;;;;;5037416;28;20285;-81
2023/06/14 11:45:28;;;;;;;3.55;1.65;;;29.50;99.90;;;;;;5053432;28;20205;-82
2023/06/14 11:47:57;;;;;;;3.30;1.58;;;29.60;99.90;;;;;;5052709;28;20206;-82
2023/06/14 11:50:24;;;;;;;3.20;1.40;;;29.70;99.90;;;;;;5066660;28;20224;-84
2023/06/14 11:52:56;;;;;;;3.20;1.60;;;29.90;99.90;;;;;;5056863;28;20233;-81
2023/06/14 11:55:23;;;;;;;2.83;1.50;;;30.00;99.90;;;;;;5052992;28;20210;-83
2023/06/14 11:57:50;;;;;;;4.80;2.03;;;29.70;99.90;;;;;;5052355;28;20656;-79
2023/06/14 12:00:18;;;;;;;3.45;1.60;;;29.70;99.90;;;;;;5053356;28;20284;-86
2023/06/14 12:02:55;;;;;;;2.80;1.80;;;29.70;99.90;;;;;;5053833;28;20206;-82
2023/06/14 12:05:23;;;;;;;5.15;1.90;;;29.70;99.90;;;;;;5053088;28;20198;-80
2023/06/14 12:07:50;;;;;;;4.68;1.67;;;29.30;99.90;;;;;;5052700;28;20185;-85
2023/06/14 12:10:18;;;;;;;5.10;1.92;;;29.30;99.90;;;;;;5046810;28;20510;-84
2023/06/14 12:12:45;;;;;;;8.80;1.95;;;28.90;99.90;;;;;;5033576;28;20217;-83
2023/06/14 12:15:12;;;;;;;2.65;1.60;;;28.80;99.90;;;;;;5032526;28;20226;-81
2023/06/14 12:17:41;;;;;;;1.88;1.52;;;28.70;99.90;;;;;;5050344;28;20206;-82
2023/06/14 12:20:13;;;;;;;3.83;1.40;;;28.80;99.90;;;;;;5051992;28;20206;-80
2023/06/14 12:22:48;;;;;;;2.60;1.85;;;28.70;99.90;;;;;;5050741;28;20501;-79
2023/06/14 12:25:30;;;;;;;3.75;1.48;;;28.60;99.90;;;;;;5052178;28;20250;-78
2023/06/14 12:27:58;;;;;;;4.57;1.60;;;28.40;99.90;;;;;;5052187;28;20532;-80
2023/06/14 12:30:25;;;;;;;4.13;1.48;;;28.50;99.90;;;;;;5052303;28;20234;-79
2023/06/14 12:32:52;;;;;;;3.53;1.90;;;28.80;99.90;;;;;;5053277;28;20329;-78
2023/06/14 12:35:19;;;;;;;3.58;1.55;;;29.00;99.90;;;;;;5052062;28;20244;-84
2023/06/14 12:37:47;;;;;;;2.22;1.63;;;28.90;99.90;;;;;;5052403;28;20700;-79
2023/06/14 12:40:14;;;;;;;2.95;1.35;;;28.80;99.90;;;;;;5048515;28;20293;-80
2023/06/14 12:42:43;;;;;;;2.75;1.65;;;28.90;99.90;;;;;;5052648;28;20198;-83
2023/06/14 12:45:11;;;;;;;2.28;1.67;;;28.70;99.90;;;;;;5053576;28;20281;-82
2023/06/14 12:47:38;;;;;;;2.83;1.67;;;28.80;99.90;;;;;;5052558;28;20194;-80
2023/06/14 12:50:06;;;;;;;4.95;1.67;;;28.80;99.90;;;;;;5051473;28;20208;-84
2023/06/14 12:52:35;;;;;;;5.05;1.80;;;28.50;99.90;;;;;;5052171;28;20267;-81
2023/06/14 12:55:03;;;;;;;3.53;1.75;;;28.20;99.90;;;;;;5051823;28;20507;-79